createdAt,value
2022-08-09T00:00:08.065Z,102882.19
2022-08-09T00:02:47.370Z,102880.50
2022-08-09T00:06:18.464Z,102861.38
2022-08-09T00:08:10.158Z,102886.75
2022-08-09T00:10:37.989Z,102885.00
2022-08-09T00:13:06.012Z,102878.03
2022-08-09T00:15:59.091Z,102876.31
2022-08-09T00:18:35.810Z,102879.84
2022-08-09T00:21:08.802Z,102871.13
2022-08-09T00:23:57.564Z,102867.66
2022-08-09T00:26:32.334Z,102872.09
2022-08-09T00:29:03.866Z,102876.53
2022-08-09T00:31:59.548Z,102864.25
2022-08-09T00:34:26.187Z,102868.69
2022-08-09T00:36:52.792Z,102872.25
2022-08-09T00:40:13.568Z,102867.91
2022-08-09T00:44:14.425Z,102869.66
2022-08-09T00:44:53.590Z,102866.16
2022-08-09T00:47:21.219Z,102862.69
2022-08-09T00:49:52.504Z,102867.06
2022-08-09T00:52:22.627Z,102865.31
2022-08-09T00:55:01.460Z,102867.97
2022-08-09T00:57:34.389Z,102830.44
2022-08-09T01:00:22.129Z,102824.31
2022-08-09T01:02:56.290Z,102861.03
2022-08-09T01:05:51.036Z,102870.66
2022-08-09T01:08:52.937Z,102871.59
2022-08-09T01:11:27.277Z,102878.59
2022-08-09T01:14:07.308Z,102845.47
2022-08-09T01:16:49.692Z,102883.88
2022-08-09T01:19:42.348Z,102881.28
2022-08-09T01:22:54.697Z,102888.31
2022-08-09T01:25:32.805Z,102859.50
2022-08-09T01:28:06.023Z,102846.41
2022-08-09T01:30:51.236Z,102874.38
2022-08-09T01:33:21.256Z,102877.91
2022-08-09T01:36:02.945Z,102884.91
2022-08-09T01:38:34.489Z,102890.19
2022-08-09T01:41:07.700Z,102891.97
2022-08-09T01:43:51.279Z,102849.13
2022-08-09T01:46:24.930Z,102868.41
2022-08-09T01:49:10.531Z,102899.88
2022-08-09T01:51:53.948Z,102888.53
2022-08-09T01:54:36.978Z,102899.91
2022-08-09T01:57:16.903Z,102903.44
2022-08-09T01:59:51.476Z,102894.66
2022-08-09T02:02:21.948Z,102892.91
2022-08-09T02:04:51.004Z,102899.06
2022-08-09T02:08:38.848Z,102863.22
2022-08-09T02:10:13.370Z,102868.47
2022-08-09T02:12:43.900Z,102865.00
2022-08-09T02:15:16.924Z,102900.81
2022-08-09T02:18:00.874Z,102885.97
2022-08-09T02:20:40.597Z,102860.63
2022-08-09T02:23:14.006Z,102889.47
2022-08-09T02:25:52.744Z,102894.72
2022-08-09T02:28:33.825Z,102895.59
2022-08-09T02:31:07.724Z,102898.25
2022-08-09T02:34:06.480Z,102890.38
2022-08-09T02:36:32.483Z,102892.16
2022-08-09T02:39:04.341Z,102864.13
2022-08-09T02:41:52.876Z,102895.66
2022-08-09T02:44:30.273Z,102891.25
2022-08-09T02:47:00.045Z,102899.13
2022-08-09T02:49:40.928Z,102897.38
2022-08-09T02:52:11.443Z,102896.47
2022-08-09T02:54:54.305Z,102897.31
2022-08-09T02:57:24.003Z,102896.47
2022-08-09T03:00:20.645Z,102899.94
2022-08-09T03:02:58.564Z,102896.44
2022-08-09T03:05:28.509Z,102882.44
2022-08-09T03:07:55.764Z,102888.53
2022-08-09T03:10:24.113Z,102886.78
2022-08-09T03:12:52.067Z,102878.91
2022-08-09T03:15:19.247Z,102882.38
2022-08-09T03:17:47.177Z,102876.25
2022-08-09T03:20:25.970Z,102885.84
2022-08-09T03:22:58.291Z,102842.09
2022-08-09T03:26:03.124Z,102891.94
2022-08-09T03:28:18.272Z,102881.47
2022-08-09T03:30:49.106Z,102868.31
2022-08-09T03:33:19.596Z,102884.06
2022-08-09T03:36:13.202Z,102878.78
2022-08-09T03:38:42.176Z,102880.50
2022-08-09T03:41:15.191Z,102883.13
2022-08-09T03:44:02.756Z,102885.78
2022-08-09T03:46:31.245Z,102877.00
2022-08-09T03:49:03.926Z,102845.44
2022-08-09T03:51:55.587Z,102885.75
2022-08-09T03:54:29.569Z,102885.72
2022-08-09T03:56:59.145Z,102892.69
2022-08-09T03:59:42.675Z,102887.44
2022-08-09T04:02:14.183Z,102890.84
2022-08-09T04:04:45.662Z,102891.72
2022-08-09T04:07:12.953Z,102889.09
2022-08-09T04:09:47.520Z,102894.28
2022-08-09T04:12:30.800Z,102893.41
2022-08-09T04:15:02.161Z,102896.88
2022-08-09T04:17:38.199Z,102895.13
2022-08-09T04:20:07.244Z,102900.31
2022-08-09T04:22:34.133Z,102901.19
2022-08-09T04:25:01.631Z,102893.28
2022-08-09T04:27:29.713Z,102892.41
2022-08-09T04:29:59.445Z,102902.88
2022-08-09T04:32:33.699Z,102899.41
2022-08-09T04:35:01.345Z,102898.53
2022-08-09T04:37:45.901Z,102889.75
2022-08-09T04:40:28.875Z,102890.66
2022-08-09T04:43:01.091Z,102898.50
2022-08-09T04:45:30.773Z,102906.34
2022-08-09T04:47:59.214Z,102902.00
2022-08-09T04:50:31.856Z,102895.84
2022-08-09T04:53:02.311Z,102902.84
2022-08-09T04:55:41.058Z,102908.03
2022-08-09T04:58:15.346Z,102896.63
2022-08-09T05:00:43.092Z,102888.72
2022-08-09T05:03:30.214Z,102916.75
2022-08-09T05:06:06.696Z,102916.72
2022-08-09T05:08:34.947Z,102918.47
2022-08-09T05:11:02.771Z,102923.69
2022-08-09T05:13:32.981Z,102918.44
2022-08-09T05:16:00.516Z,102924.59
2022-08-09T05:18:37.691Z,102922.81
2022-08-09T05:21:24.321Z,102923.72
2022-08-09T05:23:59.760Z,102926.38
2022-08-09T05:26:37.365Z,102923.75
2022-08-09T05:29:17.674Z,102929.00
2022-08-09T05:31:47.539Z,102929.03
2022-08-09T05:34:23.115Z,102936.91
2022-08-09T05:36:57.747Z,102943.88
2022-08-09T05:39:29.006Z,102937.81
2022-08-09T05:41:57.848Z,102946.56
2022-08-09T05:44:32.861Z,102948.34
2022-08-09T05:47:01.320Z,102950.97
2022-08-09T05:50:05.848Z,102953.63
2022-08-09T05:52:18.488Z,102964.13
2022-08-09T05:54:46.190Z,102958.94
2022-08-09T05:57:17.502Z,102963.34
2022-08-09T05:59:46.251Z,102959.84
2022-08-09T06:02:17.119Z,102972.16
2022-08-09T06:04:46.243Z,102980.06
2022-08-09T06:07:21.300Z,102972.19
2022-08-09T06:10:01.811Z,102978.38
2022-08-09T06:12:29.828Z,102980.16
2022-08-09T06:15:00.649Z,102968.81
2022-08-09T06:17:27.665Z,102979.34
2022-08-09T06:20:07.283Z,102984.63
2022-08-09T06:22:34.545Z,102982.03
2022-08-09T06:25:01.376Z,102980.28
2022-08-09T06:27:41.411Z,102987.31
2022-08-09T06:30:10.089Z,102989.09
2022-08-09T06:32:59.135Z,102990.88
2022-08-09T06:35:35.766Z,102988.25
2022-08-09T06:38:10.005Z,102992.69
2022-08-09T06:40:38.754Z,102993.59
2022-08-09T06:43:10.356Z,102997.97
2022-08-09T06:46:06.240Z,102979.59
2022-08-09T06:48:30.106Z,102984.88
2022-08-09T06:50:58.938Z,102976.13
2022-08-09T06:53:26.348Z,102982.25
2022-08-09T06:55:53.176Z,102975.28
2022-08-09T07:00:52.759Z,102983.13
2022-08-09T07:01:08.008Z,102978.75
2022-08-09T07:03:39.654Z,102998.91
2022-08-09T07:06:18.995Z,102993.63
2022-08-09T07:08:46.767Z,102998.00
2022-08-09T07:11:17.620Z,103002.34
2022-08-09T07:14:05.703Z,102994.44
2022-08-09T07:16:41.668Z,102997.88
2022-08-09T07:19:23.023Z,103002.22
2022-08-09T07:21:57.244Z,102999.53
2022-08-09T07:24:32.602Z,103003.00
2022-08-09T07:27:21.051Z,102996.84
2022-08-09T07:29:57.080Z,102997.59
2022-08-09T07:32:24.015Z,102994.91
2022-08-09T07:35:02.671Z,103001.84
2022-08-09T07:37:44.016Z,102993.00
2022-08-09T07:40:18.783Z,102971.06
2022-08-09T07:42:58.993Z,103004.19
2022-08-09T07:45:37.686Z,103008.50
2022-08-09T07:48:25.869Z,102998.72
2022-08-09T07:51:03.265Z,103006.47
2022-08-09T07:54:07.168Z,103004.56
2022-08-09T07:56:28.450Z,103015.75
2022-08-09T07:58:59.284Z,103010.31
2022-08-09T08:01:33.222Z,103016.31
2022-08-09T08:04:01.797Z,103009.09
2022-08-09T08:06:32.009Z,103007.13
2022-08-09T08:09:03.881Z,103010.53
2022-08-09T08:12:11.989Z,103014.69
2022-08-09T08:14:21.088Z,103004.00
2022-08-09T08:17:00.620Z,103012.56
2022-08-09T08:19:31.048Z,103014.16
2022-08-09T08:21:58.096Z,103022.84
2022-08-09T08:24:25.246Z,103022.66
2022-08-09T08:27:06.614Z,103019.75
2022-08-09T08:29:48.487Z,103022.16
2022-08-09T08:32:24.321Z,103015.91
2022-08-09T08:34:58.950Z,103022.63
2022-08-09T08:37:41.155Z,103015.31
2022-08-09T08:40:16.350Z,103008.81
2022-08-09T08:42:47.359Z,103010.41
2022-08-09T08:45:17.003Z,103003.22
2022-08-09T08:48:05.501Z,102974.13
2022-08-09T08:50:32.290Z,103007.94
2022-08-09T08:53:00.762Z,103004.16
2022-08-09T08:55:28.185Z,103005.63
2022-08-09T08:57:57.126Z,103004.50
2022-08-09T09:00:27.547Z,103001.63
2022-08-09T09:03:03.030Z,102996.25
2022-08-09T09:05:58.415Z,102993.31
2022-08-09T09:08:29.722Z,103000.97
2022-08-09T09:11:01.301Z,102999.66
2022-08-09T09:13:41.726Z,103000.97
2022-08-09T09:16:15.472Z,103005.84
2022-08-09T09:18:48.044Z,103009.84
2022-08-09T09:21:26.155Z,103004.09
2022-08-09T09:23:58.441Z,103008.06
2022-08-09T09:26:32.145Z,103012.84
2022-08-09T09:29:10.351Z,103008.06
2022-08-09T09:32:05.763Z,102976.56
2022-08-09T09:34:37.267Z,102997.72
2022-08-09T09:37:05.819Z,102998.84
2022-08-09T09:39:56.778Z,103007.97
2022-08-09T09:42:26.309Z,103012.09
2022-08-09T09:44:57.701Z,103000.19
2022-08-09T09:47:28.348Z,103009.69
2022-08-09T09:50:14.324Z,103003.06
2022-08-09T09:52:53.764Z,103006.03
2022-08-09T09:55:28.840Z,102996.53
2022-08-09T09:58:16.385Z,102945.78
2022-08-09T10:00:55.946Z,102978.34
2022-08-09T10:03:56.202Z,102975.09
2022-08-09T10:06:26.271Z,102982.09
2022-08-09T10:09:02.951Z,102966.69
2022-08-09T10:11:59.862Z,102988.53
2022-08-09T10:14:31.879Z,102988.09
2022-08-09T10:17:39.580Z,102960.09
2022-08-09T10:19:56.933Z,102970.00
2022-08-09T10:22:35.541Z,102978.66
2022-08-09T10:25:12.172Z,102972.22
2022-08-09T10:27:56.767Z,102986.19
2022-08-09T10:34:07.862Z,102981.00
2022-08-09T10:36:02.532Z,102985.06
2022-08-09T10:38:39.634Z,102983.50
2022-08-09T10:41:17.960Z,102983.03
2022-08-09T10:43:58.634Z,102951.75
2022-08-09T10:48:12.459Z,102980.66
2022-08-09T10:50:30.766Z,102982.22
2022-08-09T10:53:26.874Z,102982.69
2022-08-09T10:56:17.629Z,102983.16
2022-08-09T10:58:51.460Z,102972.31
2022-08-09T11:03:13.480Z,102971.81
2022-08-09T11:04:35.457Z,102965.03
2022-08-09T11:07:02.020Z,102960.38
2022-08-09T11:09:37.479Z,102957.56
2022-08-09T11:12:20.404Z,102957.13
2022-08-09T11:14:57.345Z,102954.91
2022-08-09T11:17:23.997Z,102951.53
2022-08-09T11:20:10.716Z,102953.06
2022-08-09T11:22:58.400Z,102924.56
2022-08-09T11:25:45.016Z,102945.66
2022-08-09T11:28:34.362Z,102937.78
2022-08-09T11:31:39.459Z,102936.66
2022-08-09T11:34:18.544Z,102930.41
2022-08-09T11:36:47.957Z,102927.72
2022-08-09T11:39:15.459Z,102919.81
2022-08-09T11:41:43.445Z,102928.94
2022-08-09T11:44:12.018Z,102922.34
2022-08-09T11:46:58.177Z,102898.34
2022-08-09T11:50:56.623Z,102921.72
2022-08-09T11:53:15.592Z,102922.94
2022-08-09T11:55:52.036Z,102912.03
2022-08-09T11:58:19.811Z,102917.88
2022-08-09T12:01:01.255Z,102919.94
2022-08-09T12:03:50.433Z,102917.34
2022-08-09T12:06:26.512Z,102910.06
2022-08-09T12:08:56.176Z,102877.53
2022-08-09T12:11:26.252Z,102897.44
2022-08-09T12:14:07.672Z,102876.69
2022-08-09T12:16:41.047Z,102906.72
2022-08-09T12:19:12.239Z,102903.25
2022-08-09T12:21:50.212Z,102894.59
2022-08-09T12:24:24.923Z,102895.25
2022-08-09T12:28:59.205Z,102889.59
2022-08-09T12:30:01.744Z,102892.59
2022-08-09T12:32:40.679Z,102879.50
2022-08-09T12:35:11.057Z,102882.31
2022-08-09T12:37:50.681Z,102878.19
2022-08-09T12:40:21.260Z,102882.22
2022-08-09T12:42:50.805Z,102879.78
2022-08-09T12:45:33.796Z,102877.00
2022-08-09T12:48:07.874Z,102869.28
2022-08-09T12:50:38.710Z,102863.13
2022-08-09T12:53:38.772Z,102833.72
2022-08-09T12:56:37.051Z,102846.94
2022-08-09T12:59:10.393Z,102859.03
2022-08-09T13:01:46.813Z,102856.78
2022-08-09T13:04:37.272Z,102848.41
2022-08-09T13:07:14.577Z,102843.47
2022-08-09T13:09:45.445Z,102841.72
2022-08-09T13:12:22.187Z,102836.38
2022-08-09T13:14:53.686Z,102847.97
2022-08-09T13:17:43.757Z,102844.22
2022-08-09T13:20:13.311Z,102834.50
2022-08-09T13:23:01.235Z,102815.31
2022-08-09T13:25:54.693Z,102807.94
2022-08-09T13:28:34.066Z,102835.50
2022-08-09T13:32:15.663Z,102832.94
2022-08-09T13:33:57.999Z,102829.03
2022-08-09T13:36:41.306Z,102842.84
2022-08-09T13:39:34.279Z,102837.88
2022-08-09T13:42:11.898Z,102798.16
2022-08-09T13:44:42.045Z,102805.44
2022-08-09T13:47:25.513Z,102825.97
2022-08-09T13:49:57.799Z,102826.84
2022-08-09T13:52:27.964Z,102824.03
2022-08-09T13:54:58.894Z,102822.72
2022-08-09T13:57:36.680Z,102816.41
2022-08-09T14:00:17.877Z,102792.28
2022-08-09T14:03:02.279Z,102813.19
2022-08-09T14:05:58.557Z,102804.75
2022-08-09T14:08:18.610Z,102811.75
2022-08-09T14:10:52.070Z,102809.81
2022-08-09T14:14:15.566Z,102810.19
2022-08-09T14:16:15.105Z,102813.69
2022-08-09T14:18:49.118Z,102782.25
2022-08-09T14:21:23.325Z,102787.28
2022-08-09T14:23:53.621Z,102796.25
2022-08-09T14:26:21.037Z,102802.16
2022-08-09T14:28:47.826Z,102803.34
2022-08-09T14:31:14.390Z,102797.50
2022-08-09T14:33:41.990Z,102790.22
2022-08-09T14:36:20.861Z,102792.84
2022-08-09T14:38:52.531Z,102789.22
2022-08-09T14:41:34.540Z,102801.00
2022-08-09T14:44:07.208Z,102796.16
2022-08-09T14:46:58.475Z,102783.88
2022-08-09T14:49:24.460Z,102787.16
2022-08-09T14:51:51.391Z,102792.09
2022-08-09T14:54:27.666Z,102788.50
2022-08-09T14:56:58.690Z,102779.72
2022-08-09T14:59:27.029Z,102769.91
2022-08-09T15:01:54.204Z,102778.41
2022-08-09T15:04:23.624Z,102776.31
2022-08-09T15:06:51.991Z,102771.22
2022-08-09T15:10:03.855Z,102786.94
2022-08-09T15:12:07.901Z,102784.50
2022-08-09T15:14:38.590Z,102774.28
2022-08-09T15:17:06.499Z,102780.91
2022-08-09T15:19:35.949Z,102781.91
2022-08-09T15:22:03.446Z,102785.19
2022-08-09T15:24:30.489Z,102770.75
2022-08-09T15:26:57.747Z,102779.72
2022-08-09T15:30:48.901Z,102775.72
2022-08-09T15:32:29.691Z,102769.75
2022-08-09T15:34:57.910Z,102759.88
2022-08-09T15:37:24.406Z,102773.22
2022-08-09T15:40:20.105Z,102733.72
2022-08-09T15:42:48.313Z,102765.75
2022-08-09T15:45:21.413Z,102758.66
2022-08-09T15:48:02.561Z,102757.31
2022-08-09T15:50:34.516Z,102762.25
2022-08-09T15:53:17.852Z,102758.00
2022-08-09T15:56:04.618Z,102746.50
2022-08-09T15:58:39.638Z,102746.50
2022-08-09T16:01:06.265Z,102751.66
2022-08-09T16:03:38.548Z,102743.34
2022-08-09T16:06:29.254Z,102745.63
2022-08-09T16:08:55.736Z,102738.72
2022-08-09T16:11:22.256Z,102732.56
2022-08-09T16:14:04.304Z,102749.06
2022-08-09T16:16:33.492Z,102739.78
2022-08-09T16:19:01.379Z,102739.75
2022-08-09T16:21:31.767Z,102726.66
2022-08-09T16:24:04.701Z,102727.66
2022-08-09T16:26:35.485Z,102730.53
2022-08-09T16:29:11.380Z,102727.19
2022-08-09T16:32:19.375Z,102720.75
2022-08-09T16:34:56.010Z,102725.41
2022-08-09T16:37:20.175Z,102723.59
2022-08-09T16:40:08.122Z,102717.59
2022-08-09T16:42:35.251Z,102714.50
2022-08-09T16:45:02.710Z,102697.72
2022-08-09T16:48:41.611Z,102715.13
2022-08-09T16:50:28.736Z,102695.34
2022-08-09T16:52:57.281Z,102702.50
2022-08-09T16:55:24.392Z,102724.00
2022-08-09T16:58:10.048Z,102723.84
2022-08-09T17:00:42.878Z,102718.72
2022-08-09T17:03:22.031Z,102723.84
2022-08-09T17:06:02.851Z,102696.72
2022-08-09T17:08:46.217Z,102712.41
2022-08-09T17:11:40.742Z,102708.28
2022-08-09T17:14:25.661Z,102701.88
2022-08-09T17:17:02.197Z,102708.25
2022-08-09T17:20:06.030Z,102703.75
2022-08-09T17:22:23.642Z,102701.03
2022-08-09T17:24:55.512Z,102698.00
2022-08-09T17:27:23.002Z,102693.56
2022-08-09T17:29:50.639Z,102691.63
2022-08-09T17:32:19.225Z,102697.44
2022-08-09T17:35:04.297Z,102707.22
2022-08-09T17:38:11.819Z,102705.47
2022-08-09T17:40:20.877Z,102699.47
2022-08-09T17:42:55.498Z,102701.66
2022-08-09T17:45:37.414Z,102715.09
2022-08-09T17:48:12.509Z,102704.31
2022-08-09T17:50:39.101Z,102704.41
2022-08-09T17:53:19.649Z,102701.75
2022-08-09T17:55:51.999Z,102706.50
2022-08-09T17:58:24.333Z,102706.72
2022-08-09T18:00:54.307Z,102721.16
2022-08-09T18:03:24.390Z,102711.69
2022-08-09T18:05:53.336Z,102725.06
2022-08-09T18:08:21.912Z,102729.25
2022-08-09T18:11:00.805Z,102730.00
2022-08-09T18:13:54.436Z,102722.38
2022-08-09T18:16:29.180Z,102741.78
2022-08-09T18:18:59.505Z,102720.19
2022-08-09T18:21:31.574Z,102738.88
2022-08-09T18:24:10.444Z,102743.22
2022-08-09T18:26:46.941Z,102738.53
2022-08-09T18:30:38.343Z,102756.66
2022-08-09T18:32:03.471Z,102764.09
2022-08-09T18:34:31.845Z,102753.38
2022-08-09T18:36:58.657Z,102765.91
2022-08-09T18:39:25.374Z,102756.66
2022-08-09T18:41:53.942Z,102764.38
2022-08-09T18:44:25.688Z,102764.31
2022-08-09T18:47:06.283Z,102753.56
2022-08-09T18:49:43.466Z,102755.88
2022-08-09T18:52:14.327Z,102766.91
2022-08-09T18:54:52.635Z,102762.06
2022-08-09T18:57:22.342Z,102767.94
2022-08-09T18:59:55.640Z,102771.34
2022-08-09T19:02:30.771Z,102764.13
2022-08-09T19:05:19.994Z,102781.44
2022-08-09T19:08:03.919Z,102773.16
2022-08-09T19:10:39.247Z,102774.53
2022-08-09T19:13:22.614Z,102770.41
2022-08-09T19:15:52.266Z,102767.47
2022-08-09T19:18:35.799Z,102770.44
2022-08-09T19:21:09.616Z,102772.59
2022-08-09T19:24:37.051Z,102768.81
2022-08-09T19:26:29.430Z,102771.97
2022-08-09T19:29:15.274Z,102781.19
2022-08-09T19:31:46.505Z,102771.91
2022-08-09T19:34:22.136Z,102791.63
2022-08-09T19:36:55.650Z,102787.66
2022-08-09T19:39:43.553Z,102785.31
2022-08-09T19:42:14.884Z,102789.25
2022-08-09T19:44:49.514Z,102797.72
2022-08-09T19:47:22.891Z,102799.06
2022-08-09T19:50:10.140Z,102800.41
2022-08-09T19:52:38.217Z,102813.03
2022-08-09T19:55:16.684Z,102816.84
2022-08-09T19:57:46.134Z,102819.78
2022-08-09T20:00:15.286Z,102812.91
2022-08-09T20:04:16.995Z,102820.03
2022-08-09T20:05:29.333Z,102818.59
2022-08-09T20:08:12.433Z,102825.94
2022-08-09T20:10:42.782Z,102825.25
2022-08-09T20:13:10.922Z,102821.84
2022-08-09T20:16:37.555Z,102828.19
2022-08-09T20:18:27.825Z,102828.50
2022-08-09T20:20:55.457Z,102799.13
2022-08-09T20:23:23.704Z,102832.38
2022-08-09T20:25:52.090Z,102836.13
2022-08-09T20:28:27.997Z,102832.75
2022-08-09T20:31:05.233Z,102837.47
2022-08-09T20:33:38.879Z,102829.81
2022-08-09T20:36:09.032Z,102831.88
2022-08-09T20:39:00.269Z,102822.53
2022-08-09T20:41:35.301Z,102831.63
2022-08-09T20:44:06.861Z,102833.56
2022-08-09T20:46:43.048Z,102835.50
2022-08-09T20:49:15.996Z,102832.09
2022-08-09T20:51:43.854Z,102828.72
2022-08-09T20:54:16.690Z,102835.03
2022-08-09T20:56:49.384Z,102828.16
2022-08-09T20:59:25.096Z,102833.59
2022-08-09T21:02:07.290Z,102834.63
2022-08-09T21:05:51.070Z,102833.06
2022-08-09T21:07:20.400Z,102826.97
2022-08-09T21:09:58.506Z,102828.81
2022-08-09T21:15:17.848Z,102834.38
2022-08-09T21:18:22.559Z,102832.78
2022-08-09T21:20:37.144Z,102838.34
2022-08-09T21:23:09.174Z,102833.19
2022-08-09T21:25:38.023Z,102837.72
2022-08-09T21:28:07.442Z,102832.53
2022-08-09T21:30:40.297Z,102828.28
2022-08-09T21:33:08.135Z,102837.19
2022-08-09T21:35:40.833Z,102834.88
2022-08-09T21:38:18.812Z,102839.31
2022-08-09T21:40:58.874Z,102838.56
2022-08-09T21:43:56.670Z,102836.13
2022-08-09T21:46:12.457Z,102798.81
2022-08-09T21:48:42.675Z,102831.06
2022-08-09T21:51:22.485Z,102839.97
2022-08-09T21:53:54.229Z,102834.81
2022-08-09T21:56:43.103Z,102832.28
2022-08-09T21:59:07.743Z,102831.47
2022-08-09T22:01:59.281Z,102838.59
2022-08-09T22:04:20.856Z,102836.97
2022-08-09T22:07:02.109Z,102835.31
2022-08-09T22:09:31.386Z,102836.38
2022-08-09T22:12:18.111Z,102830.25
2022-08-09T22:14:46.587Z,102833.94
2022-08-09T22:17:13.123Z,102840.19
2022-08-09T22:19:58.648Z,102824.56
2022-08-09T22:22:26.836Z,102836.94
2022-08-09T22:26:05.377Z,102833.53
2022-08-09T22:27:40.513Z,102830.13
2022-08-09T22:30:09.507Z,102838.06
2022-08-09T22:32:36.125Z,102830.25
2022-08-09T22:36:00.877Z,102824.25
2022-08-09T22:38:07.090Z,102820.81
2022-08-09T22:40:35.002Z,102818.19
2022-08-09T22:43:08.455Z,102826.19
2022-08-09T22:48:11.473Z,102826.25
2022-08-09T22:48:35.352Z,102824.59
2022-08-09T22:51:10.632Z,102822.00
2022-08-09T22:53:58.078Z,102816.78
2022-08-09T22:56:31.473Z,102811.63
2022-08-09T22:59:05.409Z,102820.41
2022-08-09T23:01:32.961Z,102814.34
2022-08-09T23:04:04.112Z,102814.41
2022-08-09T23:06:35.357Z,102812.72
2022-08-09T23:09:03.514Z,102810.13
2022-08-09T23:11:30.060Z,102818.97
2022-08-09T23:13:56.815Z,102816.41
2022-08-09T23:16:23.392Z,102828.72
2022-08-09T23:18:49.920Z,102818.28
2022-08-09T23:21:25.097Z,102813.06
2022-08-09T23:24:04.949Z,102816.59
2022-08-09T23:26:36.920Z,102816.66
2022-08-09T23:29:08.502Z,102817.59
2022-08-09T23:31:35.176Z,102813.25
2022-08-09T23:34:03.707Z,102815.94
2022-08-09T23:36:30.532Z,102811.56
2022-08-09T23:38:57.105Z,102809.88
2022-08-09T23:41:28.351Z,102816.06
2022-08-09T23:44:00.984Z,102787.28
2022-08-09T23:46:29.159Z,102814.41
2022-08-09T23:48:56.802Z,102804.81
2022-08-09T23:51:23.515Z,102807.44
2022-08-09T23:53:52.350Z,102809.22
2022-08-09T23:56:21.867Z,102814.47
2022-08-09T23:59:06.259Z,102813.63
